クチン の空港の天気 - METARとTAF

クチン国際空港 ( WBGG / KCH ) - マレーシア サラワク州クチン
飛行場実況気象(Metar)
観測時間02/06 03:30 MYT (02/05 19:30 UTC)
風向・風速静穏 0m/s
視程8000m
天気現象
少しの雲 雲底高度 60m
全天の4割程度の雲 雲底高度 610m
気温24℃
湿度100%
気圧1008hPa
METARWBGG 051930Z 00000KT 8000 FEW002 SCT020 24/24 Q1008 NOSIG
過去の天気等 Google飛行場航空写真 Wunderground天気予報

過去48時間のMETAR

飛行場予報(TAF)
発表時間: 2/06 01:00 MYT (2/05 17:00 UTC)
予報対象時間: 6日2時 MYT ~ 7日2時 MYT
風向・風速不定 2m/s
視程10km以上
全天の4割程度の雲 雲底高度 610m
6日2時 MYT ~ 6日6時 MYT に一時的に
視程5000m
天気現象
少しの雲 雲底高度 150m
全天の4割程度の雲 雲底高度 430m
TAF WBGG 051700Z 0518/0618 VRB03KT 9999 SCT020
TEMPO 0518/0522 5000 RA FEW005 SCT014